Time;durP1;ratioP1;P1;durP2;ratioP2;P2;SDS_P1;SDS_P2;PMS_P1;PMS_P2;Temp;Humidity;BMP_temperature;BMP_pressure;BME280_temperature;BME280_humidity;BME280_pressure;Samples;Min_cycle;Max_cycle;Signal;HPM_P1;HPM_P2
2023/10/02 00:01:58;;;;;;;27.90;15.82;;;17.60;99.90;;;;;;5089997;28;20502;-62
2023/10/02 00:04:24;;;;;;;25.67;16.98;;;17.60;99.90;;;;;;5090502;28;20127;-61
2023/10/02 00:07:05;;;;;;;26.20;15.57;;;17.60;99.90;;;;;;5090323;28;20039;-63
2023/10/02 00:09:41;;;;;;;23.55;15.63;;;17.70;99.90;;;;;;5089685;28;20387;-63
2023/10/02 00:12:11;;;;;;;24.80;16.08;;;17.70;99.90;;;;;;5090752;28;20479;-63
2023/10/02 00:14:38;;;;;;;26.27;16.40;;;17.70;99.90;;;;;;5072333;28;20147;-62
2023/10/02 00:17:06;;;;;;;28.55;17.15;;;17.70;99.90;;;;;;5090674;28;20044;-64
2023/10/02 00:19:44;;;;;;;25.10;16.80;;;17.60;99.90;;;;;;5090628;28;20097;-61
2023/10/02 00:25:07;;;;;;;28.92;16.88;;;17.70;99.90;;;;;;5071730;28;20041;-60
2023/10/02 00:27:34;;;;;;;27.08;16.45;;;17.60;99.90;;;;;;5090116;28;20039;-59
2023/10/02 00:30:00;;;;;;;27.60;16.60;;;17.70;99.90;;;;;;5090398;28;20040;-62
2023/10/02 00:32:29;;;;;;;25.88;16.20;;;17.70;99.90;;;;;;5072324;28;20040;-63
2023/10/02 00:34:58;;;;;;;27.02;16.58;;;17.70;99.90;;;;;;5089091;28;20100;-62
2023/10/02 00:37:48;;;;;;;25.42;15.90;;;17.60;99.90;;;;;;5090437;28;20047;-62
2023/10/02 00:40:30;;;;;;;27.13;16.55;;;17.60;99.90;;;;;;5089955;28;20044;-61
2023/10/02 00:43:33;;;;;;;26.75;15.80;;;17.70;99.90;;;;;;5091566;28;20076;-62
2023/10/02 00:45:49;;;;;;;27.20;16.38;;;17.60;99.90;;;;;;5092916;28;20097;-58
2023/10/02 00:48:25;;;;;;;26.70;16.75;;;17.60;99.90;;;;;;5093585;28;20114;-59
2023/10/02 00:50:54;;;;;;;26.02;16.33;;;17.50;99.90;;;;;;5075823;28;20032;-64
2023/10/02 00:53:37;;;;;;;23.48;15.52;;;17.60;99.90;;;;;;5075868;28;20111;-59
2023/10/02 00:56:23;;;;;;;25.02;16.33;;;17.60;99.90;;;;;;5093974;28;20032;-61
2023/10/02 00:59:14;;;;;;;26.73;16.55;;;17.70;99.90;;;;;;5093825;28;20036;-61
2023/10/02 01:01:41;;;;;;;27.88;16.92;;;17.70;99.90;;;;;;5093933;28;20056;-63
2023/10/02 01:04:09;;;;;;;26.15;16.17;;;17.60;99.90;;;;;;5093993;28;20040;-60
2023/10/02 01:06:54;;;;;;;28.92;17.20;;;17.60;99.90;;;;;;5092272;28;20043;-63
2023/10/02 01:09:24;;;;;;;25.55;16.50;;;17.60;99.90;;;;;;5093661;28;20061;-59
2023/10/02 01:11:49;;;;;;;26.10;16.63;;;17.50;99.90;;;;;;5093616;28;20468;-62
2023/10/02 01:14:40;;;;;;;25.48;16.25;;;17.50;99.90;;;;;;5093188;28;20036;-59
2023/10/02 01:17:02;;;;;;;24.98;16.08;;;17.50;99.90;;;;;;5092964;28;20048;-61
2023/10/02 01:19:52;;;;;;;27.40;17.35;;;17.60;99.90;;;;;;5091972;28;20114;-60
2023/10/02 01:22:27;;;;;;;26.98;16.83;;;17.60;99.90;;;;;;5093400;28;20040;-60
2023/10/02 01:25:12;;;;;;;26.23;16.48;;;17.50;99.90;;;;;;5093492;28;20422;-59
2023/10/02 01:27:46;;;;;;;24.60;16.45;;;17.40;99.90;;;;;;5093572;28;20471;-60
2023/10/02 01:30:16;;;;;;;;;;;17.50;99.90;;;;;;5093551;28;20036;-60
2023/10/02 01:35:48;;;;;;;24.30;16.40;;;17.50;99.90;;;;;;5092483;28;20059;-61
2023/10/02 01:38:18;;;;;;;26.83;16.92;;;17.40;99.90;;;;;;5074787;28;20055;-62
2023/10/02 01:40:48;;;;;;;24.73;16.08;;;17.40;99.90;;;;;;5092895;28;20044;-62
2023/10/02 01:43:15;;;;;;;26.80;16.55;;;17.40;99.90;;;;;;5093031;28;20058;-62
2023/10/02 01:45:42;;;;;;;25.40;16.08;;;17.50;99.90;;;;;;5093152;28;20042;-62
2023/10/02 01:48:13;;;;;;;24.85;15.82;;;17.40;99.90;;;;;;5074774;28;20040;-60
2023/10/02 01:50:43;;;;;;;26.23;16.48;;;17.50;99.90;;;;;;5091497;28;20032;-60
2023/10/02 01:53:28;;;;;;;24.83;15.32;;;17.50;99.90;;;;;;5091098;28;20042;-60
2023/10/02 01:56:00;;;;;;;26.38;15.52;;;17.60;99.90;;;;;;5092469;28;20105;-59
2023/10/02 01:58:27;;;;;;;26.02;15.32;;;17.60;99.90;;;;;;5092310;28;20032;-60
2023/10/02 02:00:54;;;;;;;22.27;15.00;;;17.50;99.90;;;;;;5072827;28;20051;-62
2023/10/02 02:03:21;;;;;;;25.05;16.45;;;17.50;99.90;;;;;;5092652;28;20094;-60
2023/10/02 02:05:49;;;;;;;28.17;16.65;;;17.50;99.90;;;;;;5092406;28;20036;-60
2023/10/02 02:08:24;;;;;;;24.92;15.98;;;17.50;99.90;;;;;;5092110;28;20107;-60
2023/10/02 02:11:14;;;;;;;26.55;15.55;;;17.50;99.90;;;;;;5092298;28;20131;-61
2023/10/02 02:13:44;;;;;;;25.20;16.00;;;17.50;99.90;;;;;;5092482;28;20464;-59
2023/10/02 02:16:38;;;;;;;25.90;15.90;;;17.50;99.90;;;;;;5092479;28;20109;-64
2023/10/02 02:19:05;;;;;;;;;;;17.50;99.90;;;;;;5092283;28;20043;-63
2023/10/02 02:21:32;;;;;;;25.92;14.77;;;17.40;99.90;;;;;;5092458;28;19916;-61
2023/10/02 02:24:06;;;;;;;26.20;15.80;;;17.40;99.90;;;;;;5092268;28;20513;-60
2023/10/02 02:26:39;;;;;;;25.77;16.38;;;17.40;99.90;;;;;;5092580;28;20440;-61
2023/10/02 02:29:05;;;;;;;27.30;15.52;;;17.30;99.90;;;;;;5092097;28;20089;-62
2023/10/02 02:31:39;;;;;;;26.50;15.75;;;17.30;99.90;;;;;;5091868;28;20052;-61
2023/10/02 02:34:16;;;;;;;;;;;17.30;99.90;;;;;;5092525;28;20086;-59
2023/10/02 02:36:46;;;;;;;24.83;16.35;;;17.20;99.90;;;;;;5091611;28;19916;-61
2023/10/02 02:39:15;;;;;;;25.25;14.80;;;17.20;99.90;;;;;;5091691;28;20217;-60
2023/10/02 02:44:46;;;;;;;26.95;16.52;;;17.20;99.90;;;;;;5073407;28;20042;-62
2023/10/02 02:47:24;;;;;;;26.00;15.65;;;17.00;99.90;;;;;;5091540;28;20032;-60
2023/10/02 02:49:52;;;;;;;28.27;16.92;;;16.90;99.90;;;;;;5091299;28;20039;-62
2023/10/02 02:52:25;;;;;;;27.92;16.23;;;16.90;99.90;;;;;;5091497;28;20036;-61
2023/10/02 02:55:12;;;;;;;28.48;16.50;;;16.80;99.90;;;;;;5056729;28;20153;-59
2023/10/02 02:57:39;;;;;;;26.70;16.23;;;16.80;99.90;;;;;;5091891;28;20169;-60
2023/10/02 03:02:55;;;;;;;25.30;15.90;;;16.70;99.90;;;;;;5073001;28;20146;-62
2023/10/02 03:05:23;;;;;;;24.17;15.85;;;16.80;99.90;;;;;;5090300;28;20040;-59
2023/10/02 03:07:54;;;;;;;26.92;15.75;;;16.70;99.90;;;;;;5090674;28;20035;-59
2023/10/02 03:10:23;;;;;;;26.48;17.10;;;16.80;99.90;;;;;;5091264;28;20067;-62
2023/10/02 03:12:49;;;;;;;26.75;16.65;;;16.70;99.90;;;;;;5072824;28;20044;-60
2023/10/02 03:15:17;;;;;;;25.27;15.98;;;16.60;99.90;;;;;;5091306;28;20063;-61
2023/10/02 03:17:44;;;;;;;27.10;15.93;;;16.60;99.90;;;;;;5090589;28;20032;-62
2023/10/02 03:20:24;;;;;;;23.55;14.93;;;16.60;99.90;;;;;;5091403;28;20527;-63
2023/10/02 03:22:57;;;;;;;24.52;15.88;;;16.60;99.90;;;;;;5073150;28;20184;-61
2023/10/02 03:25:47;;;;;;;26.60;16.70;;;16.60;99.90;;;;;;5091193;28;20040;-59
2023/10/02 03:28:44;;;;;;;27.08;16.65;;;16.60;99.90;;;;;;5090587;28;20047;-61
2023/10/02 03:31:03;;;;;;;22.80;13.75;;;16.70;99.90;;;;;;5089051;28;20083;-62
2023/10/02 03:33:32;;;;;;;27.88;12.07;;;16.60;99.90;;;;;;5090283;28;20059;-59
2023/10/02 03:36:20;;;;;;;24.73;15.88;;;16.50;99.90;;;;;;5090014;28;20171;-61
2023/10/02 03:38:48;;;;;;;24.23;15.98;;;16.60;99.90;;;;;;5090709;28;20031;-61
2023/10/02 03:41:14;;;;;;;25.52;16.35;;;16.50;99.90;;;;;;5091291;28;20107;-60
2023/10/02 03:43:43;;;;;;;25.80;15.93;;;16.60;99.90;;;;;;5091047;28;20122;-60
2023/10/02 03:46:22;;;;;;;26.65;16.40;;;16.50;99.90;;;;;;5090975;28;20032;-61
2023/10/02 03:48:58;;;;;;;27.83;16.23;;;16.50;99.90;;;;;;5091018;28;20033;-59
2023/10/02 03:51:36;;;;;;;25.13;16.33;;;16.50;99.90;;;;;;5091120;28;20099;-60
2023/10/02 03:54:20;;;;;;;24.30;16.13;;;16.50;99.90;;;;;;5090570;28;20050;-61
2023/10/02 03:56:50;;;;;;;25.25;15.52;;;16.50;99.90;;;;;;5089904;28;20068;-60
2023/10/02 03:59:26;;;;;;;23.90;15.85;;;16.40;99.90;;;;;;5090814;28;20020;-61
2023/10/02 04:01:54;;;;;;;25.85;16.33;;;16.30;99.90;;;;;;5090345;28;20067;-61
2023/10/02 04:04:21;;;;;;;28.77;16.58;;;16.30;99.90;;;;;;5090835;28;20082;-60
2023/10/02 04:06:53;;;;;;;29.02;17.08;;;16.20;99.90;;;;;;5089780;28;20111;-62
2023/10/02 04:11:46;;;;;;;25.70;16.02;;;16.20;99.90;;;;;;5090744;28;20482;-61
2023/10/02 04:14:17;;;;;;;27.15;16.58;;;16.30;99.90;;;;;;5090273;28;20446;-62
2023/10/02 04:17:08;;;;;;;26.75;16.88;;;16.30;99.90;;;;;;5072837;28;20040;-61
2023/10/02 04:19:35;;;;;;;26.05;16.77;;;16.40;99.90;;;;;;5094607;28;20032;-60
2023/10/02 04:22:06;;;;;;;24.83;15.65;;;16.30;99.90;;;;;;5094859;28;20379;-60
2023/10/02 04:24:51;;;;;;;26.90;16.48;;;16.40;99.90;;;;;;5076604;28;20048;-62
2023/10/02 04:27:22;;;;;;;26.77;16.30;;;16.30;99.90;;;;;;5076660;28;20047;-60
2023/10/02 04:32:32;;;;;;;25.60;16.02;;;16.40;99.90;;;;;;5094759;28;20490;-61
2023/10/02 04:34:58;;;;;;;25.63;16.38;;;16.30;99.90;;;;;;5094106;28;20036;-62
2023/10/02 04:37:24;;;;;;;28.10;16.15;;;16.30;99.90;;;;;;5094128;28;20047;-60
2023/10/02 04:42:57;;;;;;;27.00;16.75;;;16.30;99.90;;;;;;5092722;28;20043;-60
2023/10/02 04:45:21;;;;;;;27.15;16.42;;;16.40;99.90;;;;;;5093796;28;20036;-60
2023/10/02 04:47:54;;;;;;;27.25;16.60;;;16.40;99.90;;;;;;5094377;28;20068;-59
2023/10/02 04:52:56;;;;;;;28.52;16.20;;;16.20;99.90;;;;;;5094100;28;20536;-60
2023/10/02 04:55:41;;;;;;;26.88;15.98;;;16.30;99.90;;;;;;5093987;28;20123;-59
2023/10/02 04:58:15;;;;;;;23.48;15.38;;;16.20;99.90;;;;;;5093602;28;20036;-60
2023/10/02 05:03:28;;;;;;;24.80;15.77;;;16.30;99.90;;;;;;5093465;28;20051;-59
2023/10/02 05:05:58;;;;;;;26.05;15.90;;;16.10;99.90;;;;;;5092182;28;20048;-62
2023/10/02 05:08:40;;;;;;;27.27;16.70;;;16.30;99.90;;;;;;5093920;28;20040;-62
2023/10/02 05:11:08;;;;;;;25.05;16.00;;;16.10;99.90;;;;;;5092679;28;20085;-60
2023/10/02 05:14:09;;;;;;;25.10;15.60;;;16.20;99.90;;;;;;5093517;28;20058;-60
2023/10/02 05:16:29;;;;;;;26.40;15.27;;;16.10;99.90;;;;;;5073414;28;20047;-62
2023/10/02 05:18:56;;;;;;;25.10;15.80;;;16.10;99.90;;;;;;5092751;28;20088;-60
2023/10/02 05:21:35;;;;;;;28.52;16.42;;;16.20;99.90;;;;;;5093260;28;20093;-61
2023/10/02 05:24:12;;;;;;;26.48;16.60;;;16.10;99.90;;;;;;5093020;28;20493;-60
2023/10/02 05:26:41;;;;;;;27.05;16.55;;;16.20;99.90;;;;;;5091837;28;20233;-60
2023/10/02 05:29:09;;;;;;;26.02;16.10;;;16.10;99.90;;;;;;5090779;28;20032;-63
2023/10/02 05:31:42;;;;;;;24.60;15.32;;;16.00;99.90;;;;;;5092673;28;20036;-64
2023/10/02 05:34:08;;;;;;;26.60;15.88;;;16.00;99.90;;;;;;5074422;28;20042;-64
2023/10/02 05:36:35;;;;;;;25.15;15.70;;;16.10;99.90;;;;;;5092703;28;20082;-61
2023/10/02 05:39:28;;;;;;;30.05;16.15;;;16.10;99.90;;;;;;5092678;28;20036;-61
2023/10/02 05:41:56;;;;;;;29.25;15.95;;;16.10;99.90;;;;;;5091409;28;20077;-60
2023/10/02 05:44:25;;;;;;;23.63;15.63;;;16.00;99.90;;;;;;5092113;28;20536;-61
2023/10/02 05:47:05;;;;;;;25.77;15.95;;;16.10;99.90;;;;;;5092976;28;20044;-61
2023/10/02 05:49:32;;;;;;;28.23;16.38;;;15.90;99.90;;;;;;5092439;28;20716;-62
2023/10/02 05:52:00;;;;;;;28.05;15.73;;;16.10;99.90;;;;;;5092633;28;20105;-62
2023/10/02 05:54:29;;;;;;;24.45;15.57;;;16.10;99.90;;;;;;5092075;28;20044;-59
2023/10/02 05:57:14;;;;;;;30.05;16.27;;;16.10;99.90;;;;;;5092911;28;20055;-61
2023/10/02 05:59:48;;;;;;;30.25;16.73;;;16.00;99.90;;;;;;5091665;28;20036;-62
2023/10/02 06:02:19;;;;;;;27.23;16.27;;;15.90;99.90;;;;;;5092183;28;20048;-59
2023/10/02 06:04:49;;;;;;;26.27;15.25;;;15.90;99.90;;;;;;5073217;28;20055;-61
2023/10/02 06:07:40;;;;;;;27.80;16.10;;;16.00;99.90;;;;;;5092052;28;20457;-60
2023/10/02 06:10:09;;;;;;;29.42;16.50;;;15.90;99.90;;;;;;5092260;28;20111;-61
2023/10/02 06:12:36;;;;;;;26.80;16.25;;;15.90;99.90;;;;;;5066201;28;20039;-58
2023/10/02 06:15:09;;;;;;;24.67;15.63;;;16.00;99.90;;;;;;5084635;28;20466;-60
2023/10/02 06:17:36;;;;;;;27.37;16.70;;;16.00;99.90;;;;;;5083729;28;20364;-62
2023/10/02 06:20:02;;;;;;;27.98;16.17;;;16.00;99.90;;;;;;5083337;28;20040;-61
2023/10/02 06:22:27;;;;;;;25.27;15.70;;;15.90;99.90;;;;;;5082133;28;20494;-60
2023/10/02 06:24:53;;;;;;;27.05;15.52;;;16.10;99.90;;;;;;5083292;28;20396;-61
2023/10/02 06:27:22;;;;;;;26.48;15.60;;;16.10;99.90;;;;;;5077612;28;20024;-61
2023/10/02 06:29:50;;;;;;;25.23;15.68;;;16.00;99.90;;;;;;5080344;28;20043;-62
2023/10/02 06:32:19;;;;;;;24.98;15.95;;;16.10;99.90;;;;;;5081853;28;20040;-60
2023/10/02 06:34:50;;;;;;;24.33;15.18;;;16.20;99.90;;;;;;5081418;28;20040;-62
2023/10/02 06:37:25;;;;;;;29.63;15.85;;;16.00;99.90;;;;;;5062419;28;20047;-60
2023/10/02 06:42:48;;;;;;;27.63;16.15;;;16.20;99.90;;;;;;5082649;28;20044;-61
2023/10/02 06:45:18;;;;;;;25.15;15.88;;;16.20;99.90;;;;;;5084155;28;20044;-62
2023/10/02 06:47:44;;;;;;;25.23;16.08;;;16.10;99.90;;;;;;5083091;28;20035;-61
2023/10/02 06:52:57;;;;;;;28.50;16.73;;;16.20;99.90;;;;;;5083525;28;20059;-60
2023/10/02 06:55:25;;;;;;;26.00;16.00;;;16.20;99.90;;;;;;5081206;28;20028;-60
2023/10/02 06:57:53;;;;;;;25.27;15.43;;;16.20;99.90;;;;;;5077954;28;20154;-60
2023/10/02 07:00:21;;;;;;;25.15;15.27;;;16.30;99.90;;;;;;5054821;28;20606;-61
2023/10/02 07:02:56;;;;;;;26.27;15.82;;;16.40;99.90;;;;;;5055297;28;20048;-61
2023/10/02 07:05:32;;;;;;;26.60;16.27;;;16.50;99.90;;;;;;5076534;28;20346;-60
2023/10/02 07:08:18;;;;;;;27.75;16.70;;;16.40;99.90;;;;;;5077285;28;20028;-60
2023/10/02 07:10:47;;;;;;;29.20;16.20;;;16.50;99.90;;;;;;5077069;28;20442;-61
2023/10/02 07:13:20;;;;;;;24.17;15.13;;;16.40;99.90;;;;;;5080166;28;20031;-64
2023/10/02 07:15:47;;;;;;;26.95;16.98;;;16.60;99.90;;;;;;5075705;28;20502;-62
2023/10/02 07:18:14;;;;;;;27.75;17.15;;;16.60;99.90;;;;;;5063422;28;20061;-63
2023/10/02 07:20:43;;;;;;;29.98;16.38;;;16.50;99.90;;;;;;5081066;28;20028;-60
2023/10/02 07:23:19;;;;;;;28.17;16.63;;;16.50;99.90;;;;;;5082539;28;22464;-63
2023/10/02 07:25:50;;;;;;;28.10;17.77;;;16.60;99.90;;;;;;5079936;28;20055;-62
2023/10/02 07:28:23;;;;;;;29.15;16.88;;;16.80;99.90;;;;;;5085315;28;20449;-62
2023/10/02 07:30:50;;;;;;;29.73;17.38;;;16.80;99.90;;;;;;5086434;28;20025;-64
2023/10/02 07:33:18;;;;;;;29.27;17.33;;;16.70;99.90;;;;;;5092357;28;20044;-59
2023/10/02 07:35:52;;;;;;;27.42;16.50;;;16.70;99.90;;;;;;5090669;28;20050;-61
2023/10/02 07:38:29;;;;;;;28.02;16.92;;;16.90;99.90;;;;;;5071535;28;20038;-61
2023/10/02 07:41:06;;;;;;;29.17;17.33;;;16.80;99.90;;;;;;5089830;28;20038;-60
2023/10/02 07:43:32;;;;;;;28.45;17.73;;;16.80;99.90;;;;;;5090525;28;20458;-63
2023/10/02 07:46:14;;;;;;;30.80;18.17;;;17.00;99.90;;;;;;5068083;28;20043;-61
2023/10/02 07:48:41;;;;;;;29.77;17.27;;;16.90;99.90;;;;;;5082191;28;20040;-62
2023/10/02 07:51:09;;;;;;;27.05;16.65;;;17.00;99.90;;;;;;5081965;28;20036;-64
2023/10/02 07:53:38;;;;;;;31.48;17.65;;;17.00;99.90;;;;;;5058791;28;20050;-59
2023/10/02 07:56:16;;;;;;;32.00;14.32;;;17.20;99.90;;;;;;5075708;28;20101;-60
2023/10/02 07:58:43;;;;;;;29.33;17.77;;;17.20;99.90;;;;;;5079597;28;20299;-59
2023/10/02 08:01:11;;;;;;;28.88;17.52;;;17.30;99.90;;;;;;5080823;28;20067;-59
2023/10/02 08:03:44;;;;;;;30.70;17.35;;;17.20;99.90;;;;;;5063339;28;20372;-60
2023/10/02 08:06:21;;;;;;;29.83;17.98;;;17.40;99.90;;;;;;5079821;28;20038;-60
2023/10/02 08:11:52;;;;;;;31.65;18.13;;;17.50;99.90;;;;;;5081724;28;20058;-61
2023/10/02 08:14:35;;;;;;;32.45;18.50;;;17.40;99.90;;;;;;5081771;28;20106;-61
2023/10/02 08:17:27;;;;;;;29.08;18.20;;;17.70;99.90;;;;;;5062183;28;20105;-62
2023/10/02 08:19:54;;;;;;;28.77;18.17;;;17.80;99.90;;;;;;5062384;28;20059;-63
2023/10/02 08:22:35;;;;;;;28.90;18.52;;;18.00;99.90;;;;;;5080912;28;20055;-61
2023/10/02 08:25:13;;;;;;;30.13;18.58;;;17.90;99.90;;;;;;5063266;28;20032;-64
2023/10/02 08:27:55;;;;;;;30.75;18.65;;;18.10;99.90;;;;;;5081522;28;20032;-61
2023/10/02 08:30:28;;;;;;;32.47;17.92;;;18.30;99.90;;;;;;5081345;28;20107;-60
2023/10/02 08:33:05;;;;;;;31.88;18.80;;;18.30;99.90;;;;;;5081553;28;20168;-61
2023/10/02 08:35:32;;;;;;;33.33;18.52;;;18.50;99.90;;;;;;5081581;28;20048;-63
2023/10/02 08:37:59;;;;;;;30.45;19.70;;;18.40;99.90;;;;;;5080126;28;20101;-60
2023/10/02 08:40:25;;;;;;;33.45;18.77;;;18.50;99.90;;;;;;5081138;28;20044;-58
2023/10/02 08:42:53;;;;;;;32.20;20.10;;;18.50;99.90;;;;;;5080540;28;20071;-61
2023/10/02 08:45:20;;;;;;;38.70;21.13;;;18.60;99.90;;;;;;5061429;28;20219;-60
2023/10/02 08:47:49;;;;;;;33.03;19.45;;;18.50;99.90;;;;;;5081330;28;20028;-59
2023/10/02 08:50:18;;;;;;;33.22;20.40;;;18.50;99.90;;;;;;5062949;28;20127;-60
2023/10/02 08:52:50;;;;;;;33.65;20.52;;;18.50;99.90;;;;;;5081545;28;20050;-61
2023/10/02 08:58:15;;;;;;;32.88;19.83;;;18.50;99.90;;;;;;5081356;28;20133;-61
2023/10/02 09:03:42;;;;;;;39.05;21.70;;;18.70;99.90;;;;;;5081901;28;20531;-61
2023/10/02 09:11:41;;;;;;;43.95;25.15;;;18.80;99.90;;;;;;5067637;28;20097;-60
2023/10/02 09:14:21;;;;;;;41.97;24.73;;;19.00;99.90;;;;;;5089091;28;20048;-57
2023/10/02 09:19:49;;;;;;;39.75;23.95;;;19.10;99.90;;;;;;5092091;28;20556;-61
2023/10/02 09:22:19;;;;;;;45.97;24.33;;;19.30;99.90;;;;;;5074621;28;20058;-59
2023/10/02 09:25:08;;;;;;;44.80;24.92;;;19.40;99.90;;;;;;5080470;28;20047;-62
2023/10/02 09:27:38;;;;;;;41.90;23.45;;;19.50;99.90;;;;;;5050343;28;20348;-60
2023/10/02 09:33:23;;;;;;;38.17;22.98;;;19.60;99.90;;;;;;5037365;28;20111;-60
2023/10/02 09:35:52;;;;;;;37.97;23.40;;;19.60;99.90;;;;;;5068427;28;20036;-61
2023/10/02 09:38:22;;;;;;;39.90;24.85;;;19.60;99.90;;;;;;5085916;28;20427;-63
2023/10/02 09:40:54;;;;;;;41.35;24.30;;;19.60;99.90;;;;;;5085379;28;20024;-62
2023/10/02 09:43:27;;;;;;;44.10;23.80;;;19.50;99.90;;;;;;5085182;28;20101;-61
2023/10/02 09:45:59;;;;;;;41.92;23.73;;;19.50;99.90;;;;;;5084874;28;20344;-60
2023/10/02 09:51:27;;;;;;;41.92;24.20;;;19.40;99.90;;;;;;5084309;28;20130;-60
2023/10/02 09:54:08;;;;;;;41.60;22.52;;;19.50;99.90;;;;;;5083449;28;20036;-61
2023/10/02 09:56:51;;;;;;;38.80;22.40;;;19.50;99.90;;;;;;5080779;28;20044;-61
2023/10/02 09:59:22;;;;;;;38.90;21.25;;;19.80;99.90;;;;;;5084959;28;20055;-60
2023/10/02 10:10:27;;;;;;;39.10;21.80;;;20.10;99.90;;;;;;5083392;28;20455;-61
2023/10/02 10:13:12;;;;;;;40.63;22.98;;;20.20;99.90;;;;;;5083003;28;20116;-59
2023/10/02 10:15:38;;;;;;;38.72;22.10;;;20.30;99.90;;;;;;5081999;28;20360;-61
2023/10/02 10:18:12;;;;;;;39.53;22.20;;;20.40;99.90;;;;;;5063510;28;20051;-62
2023/10/02 10:20:38;;;;;;;41.63;22.92;;;20.60;99.90;;;;;;5047859;28;20032;-59
2023/10/02 10:23:31;;;;;;;41.30;23.90;;;20.50;99.90;;;;;;5064188;28;20044;-59
2023/10/02 10:26:08;;;;;;;40.85;23.83;;;20.60;99.90;;;;;;5048887;28;20036;-62
2023/10/02 10:28:50;;;;;;;39.85;22.60;;;20.70;99.90;;;;;;5050735;28;20055;-59
2023/10/02 10:31:34;;;;;;;40.50;23.02;;;20.50;99.90;;;;;;5064310;28;20055;-59
2023/10/02 10:34:00;;;;;;;38.47;22.20;;;20.50;99.90;;;;;;5084373;28;20075;-60
2023/10/02 10:36:34;;;;;;;38.55;21.75;;;20.50;99.90;;;;;;5083330;28;20039;-60
2023/10/02 10:39:30;;;;;;;;;;;20.70;99.90;;;;;;5083264;28;20024;-61
2023/10/02 10:41:57;;;;;;;36.85;20.95;;;20.80;99.90;;;;;;5083458;28;19920;-59
2023/10/02 10:44:32;;;;;;;37.40;23.23;;;21.00;99.90;;;;;;5063650;28;20055;-61
2023/10/02 10:47:03;;;;;;;34.00;21.65;;;21.30;99.90;;;;;;5064478;28;20059;-63
2023/10/02 10:50:14;;;;;;;35.17;20.88;;;21.60;99.90;;;;;;5064768;28;20051;-62
2023/10/02 10:52:39;;;;;;;34.38;20.30;;;21.80;99.90;;;;;;5083040;28;20048;-59
2023/10/02 10:55:32;;;;;;;38.85;20.73;;;22.00;99.90;;;;;;5082220;28;20039;-59
2023/10/02 10:57:58;;;;;;;40.53;21.83;;;22.00;99.90;;;;;;5083148;28;20483;-61
2023/10/02 11:00:23;;;;;;;36.75;20.88;;;22.10;99.90;;;;;;5081264;28;20039;-58
2023/10/02 11:03:14;;;;;;;38.10;22.08;;;22.10;99.90;;;;;;5083870;28;20048;-59
2023/10/02 11:05:41;;;;;;;38.20;21.75;;;22.00;99.90;;;;;;5084334;28;20072;-57
2023/10/02 11:08:23;;;;;;;35.25;21.67;;;21.90;99.90;;;;;;5082279;28;20032;-58
2023/10/02 11:11:00;;;;;;;37.63;21.90;;;21.90;99.90;;;;;;5083291;28;20101;-60
2023/10/02 11:14:01;;;;;;;32.85;20.10;;;21.70;99.90;;;;;;5084614;28;20044;-60
2023/10/02 11:16:32;;;;;;;33.92;20.08;;;21.70;99.90;;;;;;5082513;28;20483;-59
2023/10/02 11:22:14;;;;;;;32.75;19.60;;;21.70;99.90;;;;;;5083537;28;20119;-57
2023/10/02 11:25:17;;;;;;;34.75;19.05;;;21.80;99.90;;;;;;5084353;28;20048;-60
2023/10/02 11:27:43;;;;;;;32.95;20.15;;;21.90;99.90;;;;;;5064551;28;20112;-61
2023/10/02 11:30:29;;;;;;;34.97;20.08;;;22.00;99.90;;;;;;5083640;28;20186;-58
2023/10/02 11:32:58;;;;;;;32.35;19.05;;;22.00;99.90;;;;;;5084122;28;20048;-59
2023/10/02 11:35:28;;;;;;;30.77;18.17;;;22.10;99.90;;;;;;5083658;28;20123;-60
2023/10/02 11:37:55;;;;;;;31.80;17.77;;;22.10;99.90;;;;;;5083227;28;20055;-59
2023/10/02 11:40:24;;;;;;;29.52;16.70;;;22.30;99.90;;;;;;5084183;28;20036;-59
2023/10/02 11:42:53;;;;;;;30.30;16.23;;;22.40;99.90;;;;;;5083703;28;20043;-60
2023/10/02 11:45:19;;;;;;;26.00;16.20;;;22.50;99.90;;;;;;5064602;28;20062;-60
2023/10/02 11:47:44;;;;;;;26.55;14.95;;;22.70;99.90;;;;;;5084056;28;20102;-60
2023/10/02 11:50:12;;;;;;;25.13;14.15;;;22.80;99.90;;;;;;5083965;28;20036;-61
2023/10/02 11:52:38;;;;;;;22.15;14.00;;;22.90;99.90;;;;;;5083138;28;20115;-61
2023/10/02 11:55:04;;;;;;;22.35;14.02;;;23.00;99.90;;;;;;5064743;28;20139;-60
2023/10/02 11:57:30;;;;;;;25.83;15.32;;;23.10;99.90;;;;;;5065222;28;20071;-63
2023/10/02 11:59:55;;;;;;;25.05;14.55;;;23.30;99.90;;;;;;5083502;28;20440;-60
2023/10/02 12:02:21;;;;;;;25.67;14.50;;;23.20;99.90;;;;;;5083748;28;20060;-59
2023/10/02 12:04:47;;;;;;;24.83;15.18;;;23.40;99.90;;;;;;5083870;28;20058;-60
2023/10/02 12:07:16;;;;;;;27.60;15.65;;;23.50;99.90;;;;;;5083219;28;20039;-59
2023/10/02 12:09:47;;;;;;;26.30;14.35;;;23.60;99.90;;;;;;5084005;28;20028;-61
2023/10/02 12:12:13;;;;;;;22.65;13.20;;;23.70;99.90;;;;;;5083860;28;20036;-60
2023/10/02 12:14:42;;;;;;;21.02;13.05;;;23.90;99.90;;;;;;5083273;28;20067;-60
2023/10/02 12:17:11;;;;;;;22.40;13.77;;;23.90;99.90;;;;;;5066002;28;20035;-60
2023/10/02 12:19:39;;;;;;;23.77;13.40;;;23.90;99.90;;;;;;5066004;28;20087;-59
2023/10/02 12:22:06;;;;;;;22.25;12.38;;;23.90;99.90;;;;;;5082685;28;20032;-62
2023/10/02 12:24:32;;;;;;;23.60;13.35;;;24.00;99.90;;;;;;5083043;28;20467;-59
2023/10/02 12:26:58;;;;;;;22.50;12.63;;;24.10;99.90;;;;;;5083440;28;20443;-56
2023/10/02 12:29:27;;;;;;;23.40;12.95;;;24.30;99.90;;;;;;5081840;28;20106;-61
2023/10/02 12:31:53;;;;;;;21.67;12.00;;;24.40;99.90;;;;;;5077999;28;20035;-61
2023/10/02 12:34:22;;;;;;;22.00;12.35;;;24.50;99.90;;;;;;5078948;28;20059;-59
2023/10/02 12:36:49;;;;;;;19.35;11.45;;;24.60;99.90;;;;;;5082253;28;20058;-60
2023/10/02 12:39:16;;;;;;;20.48;11.75;;;24.70;99.90;;;;;;5086702;28;20042;-60
2023/10/02 12:41:42;;;;;;;20.75;11.52;;;24.70;99.90;;;;;;5068822;28;20391;-60
2023/10/02 12:44:08;;;;;;;21.80;12.35;;;24.60;99.90;;;;;;5068093;28;20040;-60
2023/10/02 12:46:43;;;;;;;26.98;14.85;;;24.70;99.90;;;;;;5082409;28;20048;-60
2023/10/02 12:49:10;;;;;;;23.75;12.70;;;24.70;99.90;;;;;;5086605;28;20028;-60
2023/10/02 12:51:35;;;;;;;25.13;13.82;;;24.60;99.90;;;;;;5083943;28;20060;-61
2023/10/02 12:54:01;;;;;;;25.33;13.70;;;24.60;99.90;;;;;;5085878;28;20060;-60
2023/10/02 12:56:27;;;;;;;23.70;13.95;;;24.60;99.90;;;;;;5080575;28;20123;-61
2023/10/02 12:58:54;;;;;;;25.23;14.57;;;24.60;99.90;;;;;;5083593;28;20467;-61
2023/10/02 13:01:27;;;;;;;24.77;13.95;;;24.70;99.90;;;;;;5091989;28;20078;-59
2023/10/02 13:03:54;;;;;;;23.77;13.80;;;24.80;99.90;;;;;;5089545;28;20072;-59
2023/10/02 13:06:22;;;;;;;22.50;13.15;;;24.80;99.90;;;;;;5092141;28;20044;-60
2023/10/02 13:08:48;;;;;;;22.10;12.85;;;24.70;99.90;;;;;;5092789;28;20169;-61
2023/10/02 13:11:19;;;;;;;26.45;14.32;;;24.70;99.90;;;;;;5093454;28;20296;-61
2023/10/02 13:13:49;;;;;;;23.05;14.18;;;24.70;99.90;;;;;;5092404;28;20115;-58
2023/10/02 13:16:18;;;;;;;24.13;12.93;;;24.90;99.90;;;;;;5093811;28;20123;-60
2023/10/02 13:18:45;;;;;;;23.30;13.43;;;24.90;99.90;;;;;;5092203;28;20467;-61
2023/10/02 13:21:19;;;;;;;21.40;12.05;;;24.80;99.90;;;;;;5093737;28;20132;-60
2023/10/02 13:23:51;;;;;;;22.75;12.80;;;24.80;99.90;;;;;;5094186;28;20395;-61
2023/10/02 13:26:17;;;;;;;26.10;12.75;;;24.70;99.90;;;;;;5091477;28;20067;-60
2023/10/02 13:28:48;;;;;;;21.90;13.55;;;24.60;99.90;;;;;;5092993;28;21691;-61
2023/10/02 13:31:16;;;;;;;24.20;13.15;;;24.60;99.90;;;;;;5091344;28;20068;-60
2023/10/02 13:33:52;;;;;;;23.27;13.13;;;24.60;99.90;;;;;;5091929;28;20074;-60
2023/10/02 13:36:23;;;;;;;23.15;12.93;;;24.60;99.90;;;;;;5091557;28;20043;-60
2023/10/02 13:38:56;;;;;;;25.05;14.43;;;24.70;99.90;;;;;;5091689;28;20043;-61
2023/10/02 13:41:22;;;;;;;23.77;14.32;;;24.60;99.90;;;;;;5092514;28;20093;-60
2023/10/02 13:43:48;;;;;;;26.23;12.93;;;24.70;99.90;;;;;;5092264;28;20065;-60
2023/10/02 13:46:16;;;;;;;19.38;10.40;;;24.70;99.90;;;;;;5092868;28;20043;-61
2023/10/02 13:48:45;;;;;;;17.90;9.85;;;24.80;99.90;;;;;;5075131;28;20035;-60
2023/10/02 13:51:13;;;;;;;20.42;10.48;;;24.90;99.90;;;;;;5091998;28;20078;-60
2023/10/02 13:53:40;;;;;;;17.80;11.02;;;25.00;99.90;;;;;;5093163;28;20040;-61
2023/10/02 13:56:16;;;;;;;18.50;9.90;;;25.20;99.90;;;;;;5073687;28;20365;-60
2023/10/02 13:58:50;;;;;;;17.00;9.02;;;25.30;99.90;;;;;;5092077;28;20387;-60
2023/10/02 14:01:19;;;;;;;18.35;10.23;;;25.20;99.90;;;;;;5091242;28;20040;-60